Nearby METAR Reports

 

KCPC - Whiteville, North Carolina, USA
Distance from station: NNE 17mi, 28km
Updated: 07/03/2022 5:35pm
Clear
Clear
 Wind from S
Wind: S 10 mph , 17 km/h
Temperature: 93°F , 34°C
Heat Index: 107°F , 42°C
Dew Point: 77°F , 25°C
Humidity: 59%
Barometer: 30.00 inHg , 1015.9 hPa
Clouds: Clear
Visibility: 7 miles , 11 km
2022/07/03 21:35 KCPC 032135Z AUTO 18009KT 7SM CLR 34/25 A3000 RMK AO2 T03390249
KCRE - North Myrtle Bea, South Carolina, USA
Distance from station: SSE 19mi, 31km
Updated: 07/03/2022 4:53pm
Clear
Clear
 Wind from SSW
Wind: SSW 17 mph , 28 km/h, Gust: 25 mph , 41 km/h
Temperature: 86°F , 30°C
Heat Index: 99°F , 37°C
Dew Point: 79°F , 26°C
Humidity: 79%
Barometer: 30.00 inHg , 1015.9 hPa
Clouds: Clear
Visibility: 10 miles , 16 km
2022/07/03 20:53 KCRE 032053Z 20015G22KT 10SM CLR 30/26 A3000 RMK AO1 SLP161 T03000256 56006
 
KHYW - Conway-Horry Cty, South Carolina, USA
Distance from station: SW 22mi, 35km
Updated: 07/03/2022 5:35pm
Clear
Clear
 Wind from SE
Wind: SE 9 mph , 15 km/h, Gust: 16 mph , 26 km/h
Temperature: 91°F , 33°C
Heat Index: 104°F , 40°C
Dew Point: 77°F , 25°C
Humidity: 63%
Barometer: 29.99 inHg , 1015.6 hPa
Clouds: Clear
Visibility: 10 miles , 16 km
2022/07/03 21:35 KHYW 032135Z AUTO 14008G14KT 10SM CLR 33/25 A2999 RMK AO2
KMAO - Marion, South Carolina, USA
Distance from station: WNW 28mi, 45km
Updated: 07/03/2022 5:35pm
Partly cloudy
Partly cloudy
 Wind from calm
Wind: Calm
Temperature: 88°F , 31°C
Heat Index: 93°F , 34°C
Dew Point: 70°F , 21°C
Humidity: 55%
Barometer: 29.98 inHg , 1015.2 hPa
Clouds: Partly cloudy
Visibility: 10 miles , 16 km
Cloud details: Partly cloudy 10000 ft
2022/07/03 21:35 KMAO 032135Z AUTO 00000KT 10SM SCT100 31/21 A2998 RMK AO2
 
KMYR - Myrtle Beach, South Carolina, USA
Distance from station: S 28mi, 45km
Updated: 07/03/2022 4:56pm
Clear
Clear
 Wind from S
Wind: S 17 mph , 28 km/h
Temperature: 84°F , 29°C
Heat Index: 96°F , 36°C
Dew Point: 79°F , 26°C
Humidity: 84%
Barometer: 30.02 inHg , 1016.6 hPa
Clouds: Clear
Visibility: 10 miles , 16 km
2022/07/03 20:56 KMYR 032056Z 19015KT 10SM CLR 29/26 A3002 RMK AO2 SLP163 T02940261 55006
KLBT - Lumberton, North Carolina, USA
Distance from station: NNW 39mi, 62km
Updated: 07/03/2022 4:56pm
Few Clouds
Few Clouds
 Wind from SSW
Wind: SSW 10 mph , 17 km/h
Temperature: 95°F , 35°C
Heat Index: 105°F , 41°C
Dew Point: 73°F , 23°C
Humidity: 50%
Barometer: 29.97 inHg , 1014.9 hPa
Clouds: Few Clouds
Visibility: 10 miles , 16 km
Cloud details: Few Clouds 11000 ft
2022/07/03 20:56 KLBT 032056Z AUTO 20009KT 10SM FEW110 35/23 A2997 RMK AO2 SLP146 T03500228 56011 TSNO
 
KSUT - Southport, North Carolina, USA
Distance from station: E 46mi, 74km
Updated: 07/03/2022 5:35pm
Clear
Clear
 Wind from SSW
Wind: SSW 9 mph , 15 km/h, Gust: 17 mph , 28 km/h
Temperature: 90°F , 32°C
Heat Index: 104°F , 40°C
Dew Point: 77°F , 25°C
Humidity: 67%
Barometer: 30.02 inHg , 1016.6 hPa
Clouds: Clear
Visibility: 10 miles , 16 km
2022/07/03 21:35 KSUT 032135Z AUTO 21008G15KT 10SM CLR 32/25 A3002 RMK AO2 T03210246
KFLO - Florence, South Carolina, USA
Distance from station: W 50mi, 81km
Updated: 07/03/2022 4:53pm
Light rain, Overcast
Light rain, Overcast
 Wind from WSW
Wind: WSW 9 mph , 15 km/h
Temperature: 84°F , 29°C
Heat Index: 92°F , 33°C
Dew Point: 75°F , 24°C
Humidity: 74%
Barometer: 29.99 inHg , 1015.6 hPa
Summary: Light rain
Clouds: Overcast
Visibility: 6 miles , 10 km
Cloud details: Partly cloudy 6000 ft
Mostly cloudy 8500 ft
Overcast 11000 ft
2022/07/03 20:53 KFLO 032053Z AUTO 25008KT 6SM -RA SCT060 BKN085 OVC110 29/24 A2999 RMK AO2 RAB25 SLP153 P0007 60007 T02940244 55009 TSNO